Time;durP1;ratioP1;P1;durP2;ratioP2;P2;SDS_P1;SDS_P2;PMS_P1;PMS_P2;Temp;Humidity;BMP_temperature;BMP_pressure;BME280_temperature;BME280_humidity;BME280_pressure;Samples;Min_cycle;Max_cycle;Signal;HPM_P1;HPM_P2
2022/02/16 00:00:03;;;;;;;49.67;7.70;;;8.60;99.90;;;;;;5069992;28;20185;-70
2022/02/16 00:02:38;;;;;;;44.38;8.52;;;8.60;99.90;;;;;;5069598;28;20259;-69
2022/02/16 00:05:08;;;;;;;51.13;9.13;;;8.60;99.90;;;;;;5069829;28;20183;-71
2022/02/16 00:07:34;;;;;;;41.15;8.98;;;8.60;99.90;;;;;;5069245;28;20194;-68
2022/02/16 00:10:00;;;;;;;49.85;10.35;;;8.60;99.90;;;;;;5071037;28;20194;-68
2022/02/16 00:12:25;;;;;;;44.28;11.45;;;8.70;99.90;;;;;;5069141;28;20182;-69
2022/02/16 00:14:52;;;;;;;54.40;11.63;;;8.70;99.90;;;;;;5070560;28;20595;-67
2022/02/16 00:17:18;;;;;;;46.92;12.13;;;8.70;99.90;;;;;;5069902;28;20255;-68
2022/02/16 00:19:43;;;;;;;40.50;11.88;;;8.70;99.90;;;;;;5084887;28;20205;-69
2022/02/16 00:22:09;;;;;;;53.60;12.55;;;8.70;99.90;;;;;;5068652;28;20643;-67
2022/02/16 00:24:35;;;;;;;42.80;12.52;;;8.70;99.90;;;;;;5070678;28;20182;-67
2022/02/16 00:27:00;;;;;;;49.35;12.05;;;8.70;99.90;;;;;;5070126;28;20193;-66
2022/02/16 00:29:26;;;;;;;36.40;10.95;;;8.70;99.90;;;;;;5067693;28;20186;-69
2022/02/16 00:31:52;;;;;;;41.53;11.60;;;8.80;99.90;;;;;;5068847;28;20232;-67
2022/02/16 00:34:17;;;;;;;43.85;11.70;;;8.80;99.90;;;;;;5069183;28;20236;-67
2022/02/16 00:36:43;;;;;;;37.60;11.18;;;8.80;99.90;;;;;;5051837;28;20198;-67
2022/02/16 00:39:09;;;;;;;51.45;12.30;;;8.80;99.90;;;;;;5033912;28;20712;-66
2022/02/16 00:41:34;;;;;;;42.75;11.43;;;8.80;99.90;;;;;;5069191;28;20261;-69
2022/02/16 00:44:00;;;;;;;43.25;11.50;;;8.80;99.90;;;;;;5034923;28;20183;-72
2022/02/16 00:46:26;;;;;;;38.30;10.73;;;8.80;99.90;;;;;;5069749;28;20178;-66
2022/02/16 00:48:51;;;;;;;38.45;11.05;;;8.80;99.90;;;;;;5048979;28;20174;-69
2022/02/16 00:51:17;;;;;;;35.05;9.32;;;8.80;99.90;;;;;;5051976;28;20686;-70
2022/02/16 00:53:43;;;;;;;38.70;10.30;;;8.80;99.90;;;;;;5050448;28;20555;-68
2022/02/16 00:56:09;;;;;;;32.22;10.00;;;8.80;99.90;;;;;;5051740;28;20227;-67
2022/02/16 00:58:36;;;;;;;35.60;9.20;;;8.80;99.90;;;;;;5050105;28;20210;-68
2022/02/16 01:01:02;;;;;;;36.70;9.77;;;8.80;99.90;;;;;;5051578;28;20573;-68
2022/02/16 01:03:28;;;;;;;32.78;10.52;;;8.80;99.90;;;;;;5051072;28;20236;-69
2022/02/16 01:05:53;;;;;;;31.75;9.35;;;8.80;99.90;;;;;;5049246;28;20614;-70
2022/02/16 01:08:19;;;;;;;32.92;9.10;;;8.80;99.90;;;;;;5051239;28;20189;-68
2022/02/16 01:10:45;;;;;;;32.38;9.30;;;8.80;99.90;;;;;;5069131;28;20569;-67
2022/02/16 01:13:13;;;;;;;38.63;9.15;;;8.80;99.90;;;;;;5050751;28;20182;-66
2022/02/16 01:15:40;;;;;;;35.63;9.38;;;8.80;99.90;;;;;;5051800;28;20186;-68
2022/02/16 01:18:06;;;;;;;37.65;9.07;;;8.80;99.90;;;;;;5049625;28;20627;-69
2022/02/16 01:20:39;;;;;;;30.52;9.68;;;8.80;99.90;;;;;;5051200;28;20667;-70
2022/02/16 01:23:10;;;;;;;34.28;10.10;;;8.80;99.90;;;;;;5050419;28;20186;-68
2022/02/16 01:25:37;;;;;;;45.80;9.63;;;8.80;99.90;;;;;;5051594;28;20220;-68
2022/02/16 01:28:10;;;;;;;36.58;7.93;;;8.80;99.90;;;;;;5049842;28;20273;-69
2022/02/16 01:30:39;;;;;;;31.48;8.25;;;8.80;99.90;;;;;;5050899;28;20209;-68
2022/02/16 01:33:19;;;;;;;41.58;7.93;;;8.80;99.90;;;;;;5048849;28;20689;-69
2022/02/16 01:35:49;;;;;;;38.95;7.55;;;8.80;99.90;;;;;;5049978;28;20186;-71
2022/02/16 01:38:14;;;;;;;37.85;8.27;;;8.80;99.90;;;;;;5063624;28;20415;-68
2022/02/16 01:40:47;;;;;;;42.70;8.88;;;9.20;99.90;;;;;;5049228;28;20408;-68
2022/02/16 01:43:13;;;;;;;36.70;7.97;;;9.60;99.90;;;;;;5049369;28;20443;-68
2022/02/16 01:45:42;;;;;;;44.28;8.32;;;9.70;99.90;;;;;;5050002;28;20446;-68
2022/02/16 01:48:11;;;;;;;36.95;8.50;;;9.80;99.90;;;;;;5048907;28;20415;-69
2022/02/16 01:50:37;;;;;;;40.37;8.37;;;9.90;99.90;;;;;;5066502;28;20415;-68
2022/02/16 01:53:04;;;;;;;39.92;8.02;;;9.90;99.90;;;;;;5064586;28;20482;-69
2022/02/16 01:55:32;;;;;;;45.78;7.57;;;10.00;99.90;;;;;;5049792;28;20783;-68
2022/02/16 01:57:59;;;;;;;39.55;7.40;;;10.00;99.90;;;;;;5048590;28;20405;-67
2022/02/16 02:00:48;;;;;;;30.85;7.00;;;10.10;99.90;;;;;;5021947;28;20504;-67
2022/02/16 02:03:16;;;;;;;39.28;7.45;;;10.10;99.90;;;;;;5048564;28;20411;-69
2022/02/16 02:05:53;;;;;;;36.20;7.68;;;10.10;99.90;;;;;;5049008;28;20419;-68
2022/02/16 02:08:22;;;;;;;35.20;7.80;;;10.10;99.90;;;;;;5031576;28;20506;-68
2022/02/16 02:10:56;;;;;;;36.72;7.80;;;10.10;99.90;;;;;;5065394;28;20407;-69
2022/02/16 02:13:22;;;;;;;35.42;8.48;;;10.10;99.90;;;;;;5048924;28;20427;-67
2022/02/16 02:15:59;;;;;;;33.67;8.40;;;10.20;99.90;;;;;;5049266;28;20410;-68
2022/02/16 02:18:29;;;;;;;41.28;9.95;;;10.20;99.90;;;;;;5047462;28;20840;-70
2022/02/16 02:20:55;;;;;;;45.10;9.97;;;10.30;99.90;;;;;;5049457;28;20431;-68
2022/02/16 02:23:21;;;;;;;46.92;10.10;;;10.30;99.90;;;;;;5047718;28;20791;-69
2022/02/16 02:25:50;;;;;;;50.28;10.60;;;10.30;99.90;;;;;;5047898;28;20429;-69
2022/02/16 02:28:16;;;;;;;47.42;10.70;;;10.30;99.90;;;;;;5047066;28;20495;-68
2022/02/16 02:30:42;;;;;;;41.85;9.57;;;10.30;99.90;;;;;;5048760;28;20399;-68
2022/02/16 02:33:09;;;;;;;52.28;10.25;;;10.30;99.90;;;;;;5048540;28;20698;-70
2022/02/16 02:35:35;;;;;;;49.57;10.50;;;10.30;99.90;;;;;;5066632;28;20461;-68
2022/02/16 02:38:00;;;;;;;42.93;9.67;;;10.40;99.90;;;;;;5048015;28;20403;-68
2022/02/16 02:40:26;;;;;;;45.33;9.27;;;10.40;99.90;;;;;;5048654;28;20449;-68
2022/02/16 02:42:52;;;;;;;42.43;9.03;;;10.40;99.90;;;;;;5047141;28;20427;-68
2022/02/16 02:45:18;;;;;;;41.37;9.97;;;10.40;99.90;;;;;;5047520;28;20484;-66
2022/02/16 02:47:45;;;;;;;50.38;10.68;;;10.40;99.90;;;;;;5048229;28;20468;-67
2022/02/16 02:50:13;;;;;;;42.22;9.05;;;10.40;99.90;;;;;;5047276;28;20498;-70
2022/02/16 02:52:39;;;;;;;44.10;9.00;;;10.50;99.90;;;;;;5063421;28;20466;-68
2022/02/16 02:55:08;;;;;;;38.47;9.10;;;10.50;99.90;;;;;;5048827;28;20510;-67
2022/02/16 02:57:34;;;;;;;35.87;8.30;;;10.40;99.90;;;;;;5047451;28;20423;-69
2022/02/16 03:00:00;;;;;;;39.78;8.10;;;10.50;99.90;;;;;;5048238;28;20415;-68
2022/02/16 03:02:26;;;;;;;41.45;8.30;;;10.40;99.90;;;;;;5046956;28;20831;-69
2022/02/16 03:04:52;;;;;;;39.23;8.80;;;10.50;99.90;;;;;;5048620;28;20403;-68
2022/02/16 03:07:19;;;;;;;39.75;8.43;;;10.50;99.90;;;;;;5047817;28;20408;-69
2022/02/16 03:09:45;;;;;;;37.33;8.67;;;10.50;99.90;;;;;;5048944;28;20453;-67
2022/02/16 03:12:10;;;;;;;36.17;8.80;;;10.50;99.90;;;;;;5046994;28;20418;-69
2022/02/16 03:14:36;;;;;;;36.70;9.30;;;10.50;99.90;;;;;;5065905;28;20419;-69
2022/02/16 03:17:03;;;;;;;37.67;9.48;;;10.50;99.90;;;;;;5065985;28;20410;-70
2022/02/16 03:19:29;;;;;;;36.25;9.60;;;10.50;99.90;;;;;;5047654;28;20418;-69
2022/02/16 03:21:56;;;;;;;27.07;9.13;;;10.50;99.90;;;;;;5048947;28;20391;-68
2022/02/16 03:24:23;;;;;;;21.48;8.43;;;10.50;99.90;;;;;;5066155;28;20915;-69
2022/02/16 03:26:48;;;;;;;26.33;8.40;;;10.50;99.90;;;;;;5052779;28;20458;-68
2022/02/16 03:29:18;;;;;;;31.42;9.13;;;10.50;99.90;;;;;;5048308;28;20834;-68
2022/02/16 03:31:52;;;;;;;27.20;9.00;;;10.50;99.90;;;;;;5035345;28;20453;-70
2022/02/16 03:34:17;;;;;;;24.42;8.18;;;10.40;99.90;;;;;;5069286;28;20443;-67
2022/02/16 03:36:46;;;;;;;25.83;8.23;;;10.50;99.90;;;;;;5049790;28;20407;-68
2022/02/16 03:39:13;;;;;;;20.75;7.85;;;10.50;99.90;;;;;;5046387;28;20417;-66
2022/02/16 03:41:40;;;;;;;21.47;7.17;;;10.50;99.90;;;;;;5049265;28;20967;-68
2022/02/16 03:44:08;;;;;;;21.52;6.80;;;10.50;99.90;;;;;;5048332;28;20409;-69
2022/02/16 03:46:39;;;;;;;23.52;6.70;;;10.50;99.90;;;;;;5048105;28;20521;-67
2022/02/16 03:49:05;;;;;;;17.80;6.07;;;10.50;99.90;;;;;;5048117;28;20972;-67
2022/02/16 03:51:31;;;;;;;17.13;5.67;;;10.50;99.90;;;;;;5048967;28;20420;-71
2022/02/16 03:53:57;;;;;;;16.60;5.43;;;10.60;99.90;;;;;;5047912;28;20420;-68
2022/02/16 03:56:24;;;;;;;14.75;5.10;;;10.60;99.90;;;;;;5048618;28;21016;-69
2022/02/16 03:58:50;;;;;;;12.23;4.50;;;10.60;99.90;;;;;;5046164;28;20488;-68
2022/02/16 04:01:15;;;;;;;13.27;4.10;;;10.60;99.90;;;;;;5048633;28;20960;-72
2022/02/16 04:03:42;;;;;;;11.90;3.60;;;10.60;99.90;;;;;;5047968;28;20439;-68
2022/02/16 04:06:07;;;;;;;9.93;3.70;;;10.60;99.90;;;;;;5047855;28;20421;-67
2022/02/16 04:08:34;;;;;;;8.25;3.13;;;10.60;99.90;;;;;;5030526;28;20413;-68
2022/02/16 04:10:59;;;;;;;8.07;2.90;;;10.60;99.90;;;;;;5048488;28;20781;-68
2022/02/16 04:13:25;;;;;;;9.70;3.00;;;10.60;99.90;;;;;;5048224;28;20417;-67
2022/02/16 04:15:52;;;;;;;6.77;2.80;;;10.60;99.90;;;;;;5047977;28;20766;-69
2022/02/16 04:18:18;;;;;;;9.32;2.95;;;10.60;99.90;;;;;;5047525;28;20919;-68
2022/02/16 04:20:43;;;;;;;6.68;2.80;;;10.60;99.90;;;;;;5047313;28;20409;-67
2022/02/16 04:23:13;;;;;;;5.80;3.17;;;10.60;99.90;;;;;;5046526;28;20473;-68
2022/02/16 04:25:40;;;;;;;7.77;3.00;;;10.50;99.90;;;;;;5048417;28;20506;-68
2022/02/16 04:28:06;;;;;;;7.63;3.50;;;10.50;99.90;;;;;;5048211;28;20412;-70
2022/02/16 04:30:33;;;;;;;7.38;3.72;;;10.50;99.90;;;;;;5048933;28;20961;-68
2022/02/16 04:33:01;;;;;;;11.73;4.20;;;10.60;99.90;;;;;;5047806;28;20417;-68
2022/02/16 04:35:27;;;;;;;8.98;4.60;;;10.60;99.90;;;;;;5044322;28;20472;-67
2022/02/16 04:37:53;;;;;;;9.50;5.40;;;10.60;99.90;;;;;;5042477;28;20428;-69
2022/02/16 04:40:19;;;;;;;10.65;5.90;;;10.50;99.90;;;;;;5046823;28;20433;-70
2022/02/16 04:42:45;;;;;;;13.40;6.90;;;10.50;99.90;;;;;;5048068;28;20406;-69
2022/02/16 04:45:11;;;;;;;11.07;7.60;;;10.60;99.90;;;;;;5046622;28;20422;-68
2022/02/16 04:47:38;;;;;;;12.77;8.55;;;10.50;99.90;;;;;;5046917;28;20409;-69
2022/02/16 04:50:06;;;;;;;16.63;9.77;;;10.50;99.90;;;;;;5047378;28;20906;-69
2022/02/16 04:52:34;;;;;;;16.17;10.27;;;10.50;99.90;;;;;;5030270;28;20405;-69
2022/02/16 04:55:08;;;;;;;17.05;11.80;;;10.50;99.90;;;;;;5048971;28;20455;-68
2022/02/16 04:57:34;;;;;;;14.50;12.73;;;10.40;99.90;;;;;;5045931;28;20481;-68
2022/02/16 04:59:59;;;;;;;17.23;14.38;;;10.50;99.90;;;;;;5046678;28;20994;-67
2022/02/16 05:02:29;;;;;;;18.30;15.18;;;10.40;99.90;;;;;;5045846;28;20488;-71
2022/02/16 05:04:55;;;;;;;17.40;15.30;;;10.40;99.90;;;;;;5047697;28;20444;-68
2022/02/16 05:07:22;;;;;;;17.33;15.50;;;10.40;99.90;;;;;;5029867;28;20457;-69
2022/02/16 05:09:49;;;;;;;15.93;13.55;;;10.40;99.90;;;;;;5046745;28;20470;-67
2022/02/16 05:12:15;;;;;;;16.05;13.35;;;10.40;99.90;;;;;;5045152;28;20413;-69
2022/02/16 05:14:42;;;;;;;17.25;13.23;;;10.40;99.90;;;;;;5063854;28;20432;-70
2022/02/16 05:17:08;;;;;;;12.90;11.57;;;10.40;99.90;;;;;;5044560;28;20417;-69
2022/02/16 05:19:34;;;;;;;12.35;11.00;;;10.40;99.90;;;;;;5044509;28;20743;-69
2022/02/16 05:22:00;;;;;;;11.98;10.68;;;10.40;99.90;;;;;;5046447;28;20454;-70
2022/02/16 05:24:32;;;;;;;11.65;10.43;;;10.40;99.90;;;;;;5046312;28;20533;-68
2022/02/16 05:26:59;;;;;;;11.00;9.87;;;10.50;99.90;;;;;;5046377;28;20409;-69
2022/02/16 05:29:25;;;;;;;10.20;9.20;;;10.50;99.90;;;;;;5044327;28;20913;-70
2022/02/16 05:32:03;;;;;;;9.50;8.50;;;10.50;99.90;;;;;;5044724;28;20405;-67
2022/02/16 05:34:29;;;;;;;9.13;8.27;;;10.50;99.90;;;;;;5045555;28;20500;-68
2022/02/16 05:36:55;;;;;;;7.90;7.10;;;10.50;99.90;;;;;;5046366;28;20991;-70
2022/02/16 05:39:23;;;;;;;9.23;7.57;;;10.60;99.90;;;;;;5045077;28;20508;-68
2022/02/16 05:41:51;;;;;;;7.82;7.03;;;10.60;99.90;;;;;;5046510;28;20413;-70
2022/02/16 05:44:17;;;;;;;7.60;6.80;;;10.60;99.90;;;;;;5045968;28;20474;-67
2022/02/16 05:46:44;;;;;;;7.97;6.63;;;10.60;99.90;;;;;;5045464;28;20472;-68
2022/02/16 05:49:11;;;;;;;5.97;5.38;;;10.60;99.90;;;;;;5045656;28;20405;-69
2022/02/16 05:51:38;;;;;;;6.85;5.10;;;10.60;99.90;;;;;;5045738;28;20401;-68
2022/02/16 05:54:05;;;;;;;5.60;5.00;;;10.70;99.90;;;;;;5045702;28;20413;-66
2022/02/16 05:56:32;;;;;;;5.07;4.57;;;10.70;99.90;;;;;;5063028;28;20519;-67
2022/02/16 05:58:58;;;;;;;5.15;4.10;;;10.70;99.90;;;;;;5043914;28;22201;-69
2022/02/16 06:01:25;;;;;;;6.32;4.45;;;10.70;99.90;;;;;;5061674;28;20401;-67
2022/02/16 06:03:57;;;;;;;5.70;4.45;;;10.70;99.90;;;;;;5044216;28;20789;-67
2022/02/16 06:06:24;;;;;;;4.95;4.45;;;10.70;99.90;;;;;;5042344;28;20416;-67
2022/02/16 06:08:50;;;;;;;4.40;4.00;;;10.80;99.90;;;;;;5043934;28;20470;-70
2022/02/16 06:11:16;;;;;;;4.65;4.07;;;10.80;99.90;;;;;;5044791;28;20432;-68
2022/02/16 06:13:46;;;;;;;9.23;3.93;;;10.80;99.90;;;;;;5042391;28;20848;-70
2022/02/16 06:16:14;;;;;;;4.10;3.70;;;10.90;99.90;;;;;;5028963;28;20405;-69
2022/02/16 06:18:40;;;;;;;4.20;3.53;;;10.90;99.90;;;;;;5044078;28;20409;-68
2022/02/16 06:21:07;;;;;;;4.10;3.10;;;10.90;99.90;;;;;;5045249;28;20428;-69
2022/02/16 06:23:32;;;;;;;3.93;2.40;;;10.90;99.90;;;;;;5044166;28;20413;-71
2022/02/16 06:26:00;;;;;;;4.57;2.10;;;11.00;99.90;;;;;;5042523;28;20413;-68
2022/02/16 06:28:26;;;;;;;3.80;2.07;;;11.00;99.90;;;;;;5042746;28;20917;-69
2022/02/16 06:30:51;;;;;;;4.17;1.83;;;11.00;99.90;;;;;;5044772;28;20427;-67
2022/02/16 06:33:17;;;;;;;3.72;1.80;;;11.10;99.90;;;;;;5043445;28;20417;-67
2022/02/16 06:35:45;;;;;;;6.00;2.10;;;11.00;99.90;;;;;;5043854;28;22201;-69
2022/02/16 06:38:11;;;;;;;6.10;2.30;;;11.10;99.90;;;;;;5042517;28;20405;-69
2022/02/16 06:40:37;;;;;;;6.60;2.40;;;11.10;99.90;;;;;;5045127;28;20579;-69
2022/02/16 06:43:06;;;;;;;8.63;2.45;;;11.10;99.90;;;;;;5042612;28;20397;-69
2022/02/16 06:45:32;;;;;;;8.73;2.50;;;11.10;99.90;;;;;;5028736;28;20416;-69
2022/02/16 06:47:59;;;;;;;9.18;3.00;;;11.10;99.90;;;;;;5044280;28;20563;-70
2022/02/16 06:50:26;;;;;;;12.73;3.13;;;11.10;99.90;;;;;;5027740;28;20413;-69
2022/02/16 06:52:59;;;;;;;8.33;3.00;;;11.10;99.90;;;;;;5044158;28;20432;-69
2022/02/16 06:55:26;;;;;;;14.13;3.15;;;11.10;99.90;;;;;;5044514;28;20425;-70
2022/02/16 06:57:57;;;;;;;17.25;3.90;;;11.10;99.90;;;;;;5044437;28;20413;-69
2022/02/16 07:00:23;;;;;;;19.73;4.30;;;11.10;99.90;;;;;;5047635;28;20420;-67
2022/02/16 07:02:49;;;;;;;19.95;5.00;;;11.10;99.90;;;;;;5047273;28;20409;-69
2022/02/16 07:05:23;;;;;;;22.92;4.95;;;11.10;99.90;;;;;;5046940;28;20832;-69
2022/02/16 07:07:48;;;;;;;23.47;4.97;;;11.10;99.90;;;;;;5047312;28;20413;-70
2022/02/16 07:10:14;;;;;;;29.13;5.43;;;11.10;99.90;;;;;;5046943;28;20448;-69
2022/02/16 07:12:41;;;;;;;27.13;5.57;;;11.10;99.90;;;;;;5046447;28;20409;-68
2022/02/16 07:15:13;;;;;;;29.40;6.55;;;11.10;99.90;;;;;;5049702;28;21198;-69
2022/02/16 07:17:46;;;;;;;33.03;5.75;;;11.10;99.90;;;;;;5047400;28;20416;-69
2022/02/16 07:20:15;;;;;;;24.03;5.40;;;11.10;99.90;;;;;;5048717;28;20409;-68
2022/02/16 07:22:41;;;;;;;33.38;6.35;;;11.10;99.90;;;;;;5046785;28;20417;-69
2022/02/16 07:25:08;;;;;;;32.45;6.22;;;11.10;99.90;;;;;;5030020;28;20421;-69
2022/02/16 07:27:34;;;;;;;36.60;6.30;;;11.10;99.90;;;;;;5047116;28;20417;-70
2022/02/16 07:30:01;;;;;;;36.38;6.25;;;11.10;99.90;;;;;;5046737;28;20451;-69
2022/02/16 07:32:27;;;;;;;38.45;5.93;;;11.10;99.90;;;;;;5046550;28;20412;-68
2022/02/16 07:34:53;;;;;;;40.45;5.20;;;11.20;99.90;;;;;;5047948;28;20784;-69
2022/02/16 07:37:18;;;;;;;36.00;4.82;;;10.80;99.90;;;;;;5031308;28;20282;-68
2022/02/16 07:39:45;;;;;;;40.05;5.32;;;10.60;99.90;;;;;;5046141;28;20289;-70
2022/02/16 07:42:10;;;;;;;40.90;5.20;;;10.50;99.90;;;;;;5046688;28;20190;-70
2022/02/16 07:44:51;;;;;;;42.30;5.50;;;10.40;99.90;;;;;;5080746;28;20183;-68
2022/02/16 07:47:23;;;;;;;44.30;5.70;;;10.30;99.90;;;;;;5047521;28;20211;-69
2022/02/16 07:49:51;;;;;;;38.80;4.55;;;10.30;99.90;;;;;;5046340;28;20667;-68
2022/02/16 07:52:49;;;;;;;43.95;5.72;;;10.30;99.90;;;;;;5026353;28;20206;-70
2022/02/16 07:55:19;;;;;;;44.42;5.13;;;10.20;99.90;;;;;;5048750;28;20218;-69
2022/02/16 07:57:45;;;;;;;49.50;6.30;;;10.20;99.90;;;;;;5046760;28;20218;-69
2022/02/16 08:00:11;;;;;;;49.83;5.78;;;10.20;99.90;;;;;;5045904;28;20540;-69
2022/02/16 08:02:46;;;;;;;39.30;4.80;;;10.20;99.90;;;;;;5041512;28;20248;-69
2022/02/16 08:05:18;;;;;;;44.10;5.30;;;10.20;99.90;;;;;;5045969;28;20741;-70
2022/02/16 08:07:44;;;;;;;44.65;5.07;;;10.20;99.90;;;;;;5047175;28;20187;-68
2022/02/16 08:10:11;;;;;;;62.53;6.20;;;10.20;99.90;;;;;;5047417;28;20675;-69
2022/02/16 08:12:45;;;;;;;60.83;6.32;;;10.30;99.90;;;;;;5045473;28;20273;-67
2022/02/16 08:15:11;;;;;;;49.30;5.88;;;10.30;99.90;;;;;;5047797;28;20692;-67
2022/02/16 08:17:38;;;;;;;55.03;6.32;;;10.30;99.90;;;;;;5046277;28;20207;-67
2022/02/16 08:20:08;;;;;;;50.97;6.32;;;10.30;99.90;;;;;;5047532;28;20224;-68
2022/02/16 08:22:41;;;;;;;53.78;5.97;;;10.30;99.90;;;;;;5047481;28;20182;-69
2022/02/16 08:25:08;;;;;;;49.70;5.70;;;10.30;99.90;;;;;;5045395;28;20192;-69
2022/02/16 08:27:57;;;;;;;59.38;6.00;;;10.40;99.90;;;;;;5045975;28;20245;-70
2022/02/16 08:30:23;;;;;;;62.17;6.25;;;10.40;99.90;;;;;;5047964;28;20182;-69
2022/02/16 08:32:49;;;;;;;61.53;6.85;;;10.40;99.90;;;;;;5046520;28;20191;-69
2022/02/16 08:35:29;;;;;;;45.70;5.53;;;10.40;99.90;;;;;;5046297;28;20527;-70
2022/02/16 08:37:56;;;;;;;52.97;6.53;;;10.40;99.90;;;;;;5046398;28;20213;-70
2022/02/16 08:40:22;;;;;;;65.03;6.88;;;10.50;99.90;;;;;;5058350;28;20294;-72
2022/02/16 08:42:47;;;;;;;47.28;6.07;;;10.50;99.90;;;;;;5049914;28;20631;-70
2022/02/16 08:45:13;;;;;;;58.40;6.70;;;10.60;99.90;;;;;;5048942;28;20417;-69
2022/02/16 08:47:39;;;;;;;57.50;7.53;;;10.90;99.90;;;;;;5065997;28;20452;-69
2022/02/16 08:50:05;;;;;;;54.42;6.55;;;11.30;99.90;;;;;;5068751;28;20186;-68
2022/02/16 08:52:31;;;;;;;46.55;6.00;;;11.10;99.90;;;;;;5067279;28;20194;-68
2022/02/16 08:54:57;;;;;;;50.03;6.20;;;11.00;99.90;;;;;;5068405;28;20189;-68
2022/02/16 08:57:24;;;;;;;49.35;6.32;;;10.90;99.90;;;;;;5050262;28;20206;-69
2022/02/16 08:59:50;;;;;;;48.13;6.43;;;10.90;99.90;;;;;;5067835;28;20190;-69
2022/02/16 09:02:15;;;;;;;46.90;6.55;;;10.80;99.90;;;;;;5068270;28;20270;-69
2022/02/16 09:04:41;;;;;;;51.30;6.20;;;10.80;99.90;;;;;;5069562;28;20320;-69
2022/02/16 09:09:51;;;;;;;58.30;6.32;;;10.80;99.90;;;;;;5066094;28;20628;-70
2022/02/16 09:12:17;;;;;;;47.80;5.60;;;10.80;99.90;;;;;;5083226;28;20237;-67
2022/02/16 09:14:42;;;;;;;54.97;6.38;;;10.80;99.90;;;;;;5069097;28;20235;-69
2022/02/16 09:17:08;;;;;;;54.92;6.13;;;10.90;99.90;;;;;;5067648;28;20257;-70
2022/02/16 09:19:34;;;;;;;53.97;6.07;;;10.90;99.90;;;;;;5068824;28;20654;-70
2022/02/16 09:22:00;;;;;;;;;;;10.90;99.90;;;;;;5069601;28;20107;-70
2022/02/16 09:24:25;;;;;;;;;;;10.90;99.90;;;;;;5067138;28;20003;-70
2022/02/16 09:26:52;;;;;;;;;;;11.00;99.90;;;;;;5068469;28;20364;-69
2022/02/16 09:29:21;;;;;;;50.80;6.93;;;11.10;99.90;;;;;;5066439;28;20430;-69
2022/02/16 09:31:51;;;;;;;43.60;6.88;;;11.60;99.90;;;;;;5066027;28;20436;-71
2022/02/16 09:34:17;;;;;;;35.05;5.25;;;11.70;99.90;;;;;;5066599;28;20186;-70
2022/02/16 09:36:43;;;;;;;47.38;5.70;;;11.70;99.90;;;;;;5050866;28;20542;-70
2022/02/16 09:39:09;;;;;;;42.78;5.72;;;11.70;99.90;;;;;;5065928;28;20540;-71
2022/02/16 09:41:36;;;;;;;43.85;5.60;;;11.70;99.90;;;;;;5067863;28;20197;-71
2022/02/16 09:44:03;;;;;;;48.70;6.07;;;11.70;99.90;;;;;;5066396;28;20248;-70
2022/02/16 09:46:29;;;;;;;42.13;6.18;;;11.60;99.90;;;;;;5069162;28;20716;-71
2022/02/16 09:48:56;;;;;;;50.20;6.80;;;11.60;99.90;;;;;;5066653;28;20244;-71
2022/02/16 09:51:22;;;;;;;47.95;5.80;;;11.60;99.90;;;;;;5068505;28;20223;-70
2022/02/16 09:53:48;;;;;;;47.47;6.45;;;11.60;99.90;;;;;;5066397;28;20191;-70
2022/02/16 09:56:13;;;;;;;47.72;6.07;;;11.60;99.90;;;;;;5067616;28;20238;-69
2022/02/16 09:58:39;;;;;;;40.60;5.47;;;11.50;99.90;;;;;;5067293;28;20289;-71
2022/02/16 10:01:09;;;;;;;43.70;6.10;;;11.50;99.90;;;;;;5068073;28;20243;-69
2022/02/16 10:03:36;;;;;;;48.50;6.50;;;11.50;99.90;;;;;;5066676;28;20943;-72
2022/02/16 10:06:02;;;;;;;41.15;5.72;;;11.40;99.90;;;;;;5066856;28;20195;-69
2022/02/16 10:08:45;;;;;;;34.50;5.47;;;11.40;99.90;;;;;;5066624;28;20191;-71
2022/02/16 10:11:13;;;;;;;40.00;5.63;;;11.40;99.90;;;;;;5082538;28;20297;-70
2022/02/16 10:13:39;;;;;;;43.75;5.95;;;11.30;99.90;;;;;;5065418;28;20536;-70
2022/02/16 10:16:06;;;;;;;36.53;5.90;;;11.30;99.90;;;;;;5051633;28;20195;-70
2022/02/16 10:18:32;;;;;;;35.45;5.13;;;11.30;99.90;;;;;;5064992;28;20934;-69
2022/02/16 10:21:06;;;;;;;34.25;5.05;;;11.20;99.90;;;;;;5083090;28;20182;-70
2022/02/16 10:23:45;;;;;;;48.85;5.47;;;11.20;99.90;;;;;;5066589;28;20183;-71
2022/02/16 10:26:12;;;;;;;44.42;4.90;;;11.30;99.90;;;;;;5068048;28;20595;-69
2022/02/16 10:28:50;;;;;;;31.92;4.43;;;11.30;99.90;;;;;;5065346;28;20195;-72
2022/02/16 10:31:16;;;;;;;39.03;5.32;;;11.30;99.90;;;;;;5068220;28;20193;-69
2022/02/16 10:33:44;;;;;;;35.63;5.00;;;11.30;99.90;;;;;;5065044;28;20187;-72
2022/02/16 10:36:14;;;;;;;34.38;4.95;;;11.30;99.90;;;;;;5066034;28;20587;-73
2022/02/16 10:38:57;;;;;;;25.73;4.60;;;11.30;99.90;;;;;;5048400;28;20213;-72
2022/02/16 10:41:40;;;;;;;36.70;4.60;;;11.30;99.90;;;;;;5065796;28;20187;-74
2022/02/16 10:44:18;;;;;;;36.15;4.38;;;11.30;99.90;;;;;;5067005;28;20635;-70
2022/02/16 10:46:44;;;;;;;37.92;5.63;;;11.30;99.90;;;;;;5049462;28;20297;-70
2022/02/16 10:49:14;;;;;;;43.47;5.97;;;11.30;99.90;;;;;;5067144;28;20205;-70
2022/02/16 10:51:40;;;;;;;48.22;6.13;;;11.30;99.90;;;;;;5066610;28;20190;-70
2022/02/16 10:54:18;;;;;;;48.20;6.35;;;11.30;99.90;;;;;;5067399;28;20183;-70
2022/02/16 10:56:46;;;;;;;38.28;6.13;;;11.20;99.90;;;;;;5049560;28;20190;-69
2022/02/16 10:59:12;;;;;;;38.95;5.97;;;11.20;99.90;;;;;;5067092;28;20655;-70
2022/02/16 11:01:39;;;;;;;47.10;6.68;;;11.20;99.90;;;;;;5067134;28;20183;-69
2022/02/16 11:04:06;;;;;;;47.75;6.25;;;11.20;99.90;;;;;;5049617;28;20214;-70
2022/02/16 11:06:35;;;;;;;48.13;6.90;;;11.20;99.90;;;;;;5066866;28;20193;-70
2022/02/16 11:09:01;;;;;;;49.88;6.25;;;11.10;99.90;;;;;;5047773;28;20194;-69
2022/02/16 11:11:27;;;;;;;41.42;5.63;;;11.10;99.90;;;;;;5048866;28;20201;-70
2022/02/16 11:13:55;;;;;;;42.08;5.75;;;11.10;99.90;;;;;;5066935;28;20290;-70
2022/02/16 11:16:21;;;;;;;54.25;6.05;;;11.10;99.90;;;;;;5082500;28;20290;-70
2022/02/16 11:18:50;;;;;;;44.88;6.20;;;11.10;99.90;;;;;;5066552;28;20202;-70
2022/02/16 11:21:18;;;;;;;39.35;5.78;;;11.10;99.90;;;;;;5067410;28;20179;-68
2022/02/16 11:23:49;;;;;;;43.13;5.72;;;11.10;99.90;;;;;;5067050;28;20207;-70
2022/02/16 11:26:38;;;;;;;42.13;6.25;;;11.10;99.90;;;;;;5064705;28;20669;-70
2022/02/16 11:29:26;;;;;;;39.83;5.75;;;11.20;99.90;;;;;;5067276;28;20197;-69
2022/02/16 11:32:01;;;;;;;44.80;6.03;;;11.20;99.90;;;;;;5066282;28;20892;-72
2022/02/16 11:34:27;;;;;;;41.03;5.63;;;11.20;99.90;;;;;;5067484;28;20662;-70
2022/02/16 11:37:02;;;;;;;46.45;5.53;;;11.20;99.90;;;;;;5067025;28;20174;-70
2022/02/16 11:39:48;;;;;;;41.97;5.72;;;11.30;99.90;;;;;;5067681;28;20221;-69
2022/02/16 11:42:21;;;;;;;45.55;6.25;;;11.20;99.90;;;;;;5066767;28;20190;-69
2022/02/16 11:44:50;;;;;;;46.03;6.40;;;11.20;99.90;;;;;;5067115;28;20189;-69
2022/02/16 11:47:36;;;;;;;39.17;5.57;;;11.20;99.90;;;;;;5069512;28;20684;-69
2022/02/16 11:50:16;;;;;;;48.10;7.53;;;11.30;99.90;;;;;;5044110;28;20426;-69
2022/02/16 11:52:43;;;;;;;49.60;7.68;;;11.80;99.90;;;;;;5068950;28;20426;-69
2022/02/16 11:55:24;;;;;;;47.67;6.93;;;12.10;99.90;;;;;;5069735;28;20419;-69
2022/02/16 11:58:03;;;;;;;46.45;8.02;;;12.20;99.90;;;;;;5067613;28;20531;-69
2022/02/16 12:00:37;;;;;;;47.13;7.05;;;12.40;99.90;;;;;;5051508;28;20502;-70
2022/02/16 12:03:05;;;;;;;46.58;7.13;;;12.50;99.90;;;;;;5068606;28;20416;-69
2022/02/16 12:05:51;;;;;;;49.83;7.90;;;12.50;99.90;;;;;;5068458;28;20407;-69
2022/02/16 12:08:33;;;;;;;44.85;7.85;;;12.60;99.90;;;;;;5069491;28;20423;-70
2022/02/16 12:11:23;;;;;;;51.40;8.02;;;12.60;99.90;;;;;;5049548;28;20446;-70
2022/02/16 12:13:58;;;;;;;45.55;7.93;;;12.60;99.90;;;;;;5069199;28;20419;-70
2022/02/16 12:16:31;;;;;;;51.97;8.18;;;12.60;99.90;;;;;;5066763;28;20414;-70
2022/02/16 12:19:02;;;;;;;56.53;8.60;;;12.60;99.90;;;;;;5069202;28;20514;-69
2022/02/16 12:21:32;;;;;;;51.13;8.20;;;12.50;99.90;;;;;;5069281;28;20415;-70
2022/02/16 12:24:01;;;;;;;49.60;8.10;;;12.60;99.90;;;;;;5068402;28;20485;-70
2022/02/16 12:26:36;;;;;;;54.40;8.57;;;12.50;99.90;;;;;;5050458;28;20414;-70
2022/02/16 12:29:11;;;;;;;60.70;9.32;;;12.50;99.90;;;;;;5066899;28;20423;-69
2022/02/16 12:31:39;;;;;;;56.03;8.50;;;12.50;99.90;;;;;;5068281;28;20434;-69
2022/02/16 12:34:09;;;;;;;59.65;9.10;;;12.40;99.90;;;;;;5066296;28;20910;-69
2022/02/16 12:36:41;;;;;;;62.17;9.02;;;12.40;99.90;;;;;;5067749;28;20415;-70
2022/02/16 12:39:09;;;;;;;58.97;8.73;;;12.40;99.90;;;;;;5068219;28;20436;-69
2022/02/16 12:41:35;;;;;;;61.45;9.15;;;12.40;99.90;;;;;;5050054;28;20423;-69
2022/02/16 12:44:05;;;;;;;60.30;9.65;;;12.40;99.90;;;;;;5065773;28;20532;-70
2022/02/16 12:46:33;;;;;;;64.07;10.67;;;12.30;99.90;;;;;;5069080;28;20415;-69